sensor_id;sensor_type;location;lat;lon;timestamp;temperature;humidity
37974;DHT22;23796;51.458;7.000;2022-12-29T00:00:00;10.90;99.90
37974;DHT22;23796;51.458;7.000;2022-12-29T00:02:26;10.90;99.90
37974;DHT22;23796;51.458;7.000;2022-12-29T00:04:52;10.90;99.90
37974;DHT22;23796;51.458;7.000;2022-12-29T00:07:18;11.00;99.90
37974;DHT22;23796;51.458;7.000;2022-12-29T00:09:43;11.00;99.90
37974;DHT22;23796;51.458;7.000;2022-12-29T00:12:09;11.00;99.90
37974;DHT22;23796;51.458;7.000;2022-12-29T00:14:37;11.00;99.90
37974;DHT22;23796;51.458;7.000;2022-12-29T00:17:21;11.00;99.90
37974;DHT22;23796;51.458;7.000;2022-12-29T00:19:47;11.00;99.90
37974;DHT22;23796;51.458;7.000;2022-12-29T00:22:31;10.90;99.90
37974;DHT22;23796;51.458;7.000;2022-12-29T00:25:15;10.80;99.90
37974;DHT22;23796;51.458;7.000;2022-12-29T00:27:59;10.80;99.90
37974;DHT22;23796;51.458;7.000;2022-12-29T00:30:46;10.80;99.90
37974;DHT22;23796;51.458;7.000;2022-12-29T00:33:32;10.70;99.90
37974;DHT22;23796;51.458;7.000;2022-12-29T00:36:31;10.70;99.90
37974;DHT22;23796;51.458;7.000;2022-12-29T00:39:01;10.70;99.90
37974;DHT22;23796;51.458;7.000;2022-12-29T00:41:47;10.80;99.90
37974;DHT22;23796;51.458;7.000;2022-12-29T00:44:31;10.80;99.90
37974;DHT22;23796;51.458;7.000;2022-12-29T00:46:57;10.80;99.90
37974;DHT22;23796;51.458;7.000;2022-12-29T00:49:22;10.80;99.90
37974;DHT22;23796;51.458;7.000;2022-12-29T00:51:58;10.80;99.90
37974;DHT22;23796;51.458;7.000;2022-12-29T00:54:29;10.80;99.90
37974;DHT22;23796;51.458;7.000;2022-12-29T00:56:57;10.80;99.90
37974;DHT22;23796;51.458;7.000;2022-12-29T00:59:23;10.80;99.90
37974;DHT22;23796;51.458;7.000;2022-12-29T01:01:50;10.80;99.90
37974;DHT22;23796;51.458;7.000;2022-12-29T01:04:20;10.70;99.90
37974;DHT22;23796;51.458;7.000;2022-12-29T01:06:47;10.70;99.90
37974;DHT22;23796;51.458;7.000;2022-12-29T01:09:12;10.70;99.90
37974;DHT22;23796;51.458;7.000;2022-12-29T01:11:56;10.80;99.90
37974;DHT22;23796;51.458;7.000;2022-12-29T01:14:25;10.80;99.90
37974;DHT22;23796;51.458;7.000;2022-12-29T01:16:51;10.80;99.90
37974;DHT22;23796;51.458;7.000;2022-12-29T01:19:19;10.80;99.90
37974;DHT22;23796;51.458;7.000;2022-12-29T01:21:46;10.90;99.90
37974;DHT22;23796;51.458;7.000;2022-12-29T01:24:15;10.90;99.90
37974;DHT22;23796;51.458;7.000;2022-12-29T01:26:41;10.90;99.90
37974;DHT22;23796;51.458;7.000;2022-12-29T01:29:09;11.00;99.90
37974;DHT22;23796;51.458;7.000;2022-12-29T01:31:35;11.10;99.90
37974;DHT22;23796;51.458;7.000;2022-12-29T01:34:01;11.10;99.90
37974;DHT22;23796;51.458;7.000;2022-12-29T01:36:29;11.10;99.90
37974;DHT22;23796;51.458;7.000;2022-12-29T01:38:55;11.10;99.90
37974;DHT22;23796;51.458;7.000;2022-12-29T01:41:21;11.20;99.90
37974;DHT22;23796;51.458;7.000;2022-12-29T01:43:54;11.20;99.90
37974;DHT22;23796;51.458;7.000;2022-12-29T01:46:38;11.20;99.90
37974;DHT22;23796;51.458;7.000;2022-12-29T01:51:38;11.30;99.90
37974;DHT22;23796;51.458;7.000;2022-12-29T01:54:11;11.30;99.90
37974;DHT22;23796;51.458;7.000;2022-12-29T01:56:38;11.30;99.90
37974;DHT22;23796;51.458;7.000;2022-12-29T01:59:10;11.30;99.90
37974;DHT22;23796;51.458;7.000;2022-12-29T02:01:39;11.30;99.90
37974;DHT22;23796;51.458;7.000;2022-12-29T02:04:09;11.30;99.90
37974;DHT22;23796;51.458;7.000;2022-12-29T02:06:55;11.40;99.90
37974;DHT22;23796;51.458;7.000;2022-12-29T02:09:22;11.40;99.90
37974;DHT22;23796;51.458;7.000;2022-12-29T02:11:49;11.40;99.90
37974;DHT22;23796;51.458;7.000;2022-12-29T02:14:14;11.40;99.90
37974;DHT22;23796;51.458;7.000;2022-12-29T02:30:45;11.60;99.90
37974;DHT22;23796;51.458;7.000;2022-12-29T02:33:25;11.70;99.90
37974;DHT22;23796;51.458;7.000;2022-12-29T02:36:14;11.70;99.90
37974;DHT22;23796;51.458;7.000;2022-12-29T02:39:27;11.70;99.90
37974;DHT22;23796;51.458;7.000;2022-12-29T02:42:19;11.80;99.90
37974;DHT22;23796;51.458;7.000;2022-12-29T02:44:59;11.80;99.90
37974;DHT22;23796;51.458;7.000;2022-12-29T02:47:47;11.80;99.90
37974;DHT22;23796;51.458;7.000;2022-12-29T02:50:32;11.80;99.90
37974;DHT22;23796;51.458;7.000;2022-12-29T02:53:01;11.80;99.90
37974;DHT22;23796;51.458;7.000;2022-12-29T02:55:27;11.80;99.90
37974;DHT22;23796;51.458;7.000;2022-12-29T02:58:16;11.80;99.90
37974;DHT22;23796;51.458;7.000;2022-12-29T03:04:22;11.80;99.90
37974;DHT22;23796;51.458;7.000;2022-12-29T03:15:10;11.90;99.90
37974;DHT22;23796;51.458;7.000;2022-12-29T03:18:08;11.90;99.90
37974;DHT22;23796;51.458;7.000;2022-12-29T03:20:48;12.00;99.90
37974;DHT22;23796;51.458;7.000;2022-12-29T03:23:16;12.00;99.90
37974;DHT22;23796;51.458;7.000;2022-12-29T03:25:48;12.00;99.90
37974;DHT22;23796;51.458;7.000;2022-12-29T03:28:28;12.00;99.90
37974;DHT22;23796;51.458;7.000;2022-12-29T03:30:57;12.00;99.90
37974;DHT22;23796;51.458;7.000;2022-12-29T03:33:28;12.00;99.90
37974;DHT22;23796;51.458;7.000;2022-12-29T03:36:00;12.00;99.90
37974;DHT22;23796;51.458;7.000;2022-12-29T03:38:38;12.00;99.90
37974;DHT22;23796;51.458;7.000;2022-12-29T03:41:10;12.00;99.90
37974;DHT22;23796;51.458;7.000;2022-12-29T03:43:37;12.10;99.90
37974;DHT22;23796;51.458;7.000;2022-12-29T03:46:05;12.10;99.90
37974;DHT22;23796;51.458;7.000;2022-12-29T03:48:30;12.10;99.90
37974;DHT22;23796;51.458;7.000;2022-12-29T03:50:58;12.10;99.90
37974;DHT22;23796;51.458;7.000;2022-12-29T03:53:23;12.10;99.90
37974;DHT22;23796;51.458;7.000;2022-12-29T03:55:49;12.10;99.90
37974;DHT22;23796;51.458;7.000;2022-12-29T03:58:15;12.00;99.90
37974;DHT22;23796;51.458;7.000;2022-12-29T04:00:40;12.00;99.90
37974;DHT22;23796;51.458;7.000;2022-12-29T04:03:06;12.00;99.90
37974;DHT22;23796;51.458;7.000;2022-12-29T04:05:31;12.00;99.90
37974;DHT22;23796;51.458;7.000;2022-12-29T04:08:00;12.00;99.90
37974;DHT22;23796;51.458;7.000;2022-12-29T04:10:27;12.00;99.90
37974;DHT22;23796;51.458;7.000;2022-12-29T04:12:55;12.00;99.90
37974;DHT22;23796;51.458;7.000;2022-12-29T04:15:23;12.10;99.90
37974;DHT22;23796;51.458;7.000;2022-12-29T04:17:49;12.10;99.90
37974;DHT22;23796;51.458;7.000;2022-12-29T04:20:15;12.10;99.90
37974;DHT22;23796;51.458;7.000;2022-12-29T04:23:03;12.10;99.90
37974;DHT22;23796;51.458;7.000;2022-12-29T04:25:31;12.10;99.90
37974;DHT22;23796;51.458;7.000;2022-12-29T04:27:57;12.10;99.90
37974;DHT22;23796;51.458;7.000;2022-12-29T04:30:25;12.20;99.90
37974;DHT22;23796;51.458;7.000;2022-12-29T04:32:51;12.20;99.90
37974;DHT22;23796;51.458;7.000;2022-12-29T04:35:19;12.20;99.90
37974;DHT22;23796;51.458;7.000;2022-12-29T04:37:45;12.30;99.90
37974;DHT22;23796;51.458;7.000;2022-12-29T04:40:13;12.20;99.90
37974;DHT22;23796;51.458;7.000;2022-12-29T04:42:39;12.20;99.90
37974;DHT22;23796;51.458;7.000;2022-12-29T04:45:05;12.20;99.90
37974;DHT22;23796;51.458;7.000;2022-12-29T04:47:33;12.30;99.90
37974;DHT22;23796;51.458;7.000;2022-12-29T04:50:01;12.20;99.90
37974;DHT22;23796;51.458;7.000;2022-12-29T04:52:26;12.20;99.90
37974;DHT22;23796;51.458;7.000;2022-12-29T04:54:54;12.30;99.90
37974;DHT22;23796;51.458;7.000;2022-12-29T04:57:20;12.20;99.90
37974;DHT22;23796;51.458;7.000;2022-12-29T04:59:48;12.30;99.90
37974;DHT22;23796;51.458;7.000;2022-12-29T05:02:13;12.30;99.90
37974;DHT22;23796;51.458;7.000;2022-12-29T05:04:39;12.30;99.90
37974;DHT22;23796;51.458;7.000;2022-12-29T05:07:04;12.30;99.90
37974;DHT22;23796;51.458;7.000;2022-12-29T05:09:32;12.30;99.90
37974;DHT22;23796;51.458;7.000;2022-12-29T05:12:00;12.40;99.90
37974;DHT22;23796;51.458;7.000;2022-12-29T05:14:26;12.40;99.90
37974;DHT22;23796;51.458;7.000;2022-12-29T05:16:53;12.30;99.90
37974;DHT22;23796;51.458;7.000;2022-12-29T05:19:22;12.30;99.90
37974;DHT22;23796;51.458;7.000;2022-12-29T05:21:50;12.30;99.90
37974;DHT22;23796;51.458;7.000;2022-12-29T05:24:17;12.30;99.90
37974;DHT22;23796;51.458;7.000;2022-12-29T05:26:43;12.30;99.90
37974;DHT22;23796;51.458;7.000;2022-12-29T05:29:11;12.30;99.90
37974;DHT22;23796;51.458;7.000;2022-12-29T05:31:37;12.30;99.90
37974;DHT22;23796;51.458;7.000;2022-12-29T05:34:03;12.20;99.90
37974;DHT22;23796;51.458;7.000;2022-12-29T05:36:30;12.20;99.90
37974;DHT22;23796;51.458;7.000;2022-12-29T05:38:58;12.20;99.90
37974;DHT22;23796;51.458;7.000;2022-12-29T05:41:24;12.20;99.90
37974;DHT22;23796;51.458;7.000;2022-12-29T05:43:52;12.20;99.90
37974;DHT22;23796;51.458;7.000;2022-12-29T05:46:17;12.20;99.90
37974;DHT22;23796;51.458;7.000;2022-12-29T05:48:43;12.20;99.90
37974;DHT22;23796;51.458;7.000;2022-12-29T05:51:09;12.20;99.90
37974;DHT22;23796;51.458;7.000;2022-12-29T05:53:36;12.00;99.90
37974;DHT22;23796;51.458;7.000;2022-12-29T05:56:02;11.90;99.90
37974;DHT22;23796;51.458;7.000;2022-12-29T05:58:28;11.70;99.90
37974;DHT22;23796;51.458;7.000;2022-12-29T06:00:53;11.60;99.90
37974;DHT22;23796;51.458;7.000;2022-12-29T06:03:19;11.60;99.90
37974;DHT22;23796;51.458;7.000;2022-12-29T06:05:47;11.60;99.90
37974;DHT22;23796;51.458;7.000;2022-12-29T06:08:15;11.50;99.90
37974;DHT22;23796;51.458;7.000;2022-12-29T06:10:41;11.60;99.90
37974;DHT22;23796;51.458;7.000;2022-12-29T06:13:06;11.70;99.90
37974;DHT22;23796;51.458;7.000;2022-12-29T06:15:33;11.70;99.90
37974;DHT22;23796;51.458;7.000;2022-12-29T06:18:01;11.60;99.90
37974;DHT22;23796;51.458;7.000;2022-12-29T06:20:26;11.50;99.90
37974;DHT22;23796;51.458;7.000;2022-12-29T06:22:52;11.40;99.90
37974;DHT22;23796;51.458;7.000;2022-12-29T06:25:20;11.30;99.90
37974;DHT22;23796;51.458;7.000;2022-12-29T06:27:46;11.20;99.90
37974;DHT22;23796;51.458;7.000;2022-12-29T06:30:12;11.20;99.90
37974;DHT22;23796;51.458;7.000;2022-12-29T06:32:38;11.10;99.90
37974;DHT22;23796;51.458;7.000;2022-12-29T06:35:04;11.10;99.90
37974;DHT22;23796;51.458;7.000;2022-12-29T06:37:33;11.20;99.90
37974;DHT22;23796;51.458;7.000;2022-12-29T06:40:01;11.30;99.90
37974;DHT22;23796;51.458;7.000;2022-12-29T06:42:30;11.40;99.90
37974;DHT22;23796;51.458;7.000;2022-12-29T06:44:57;11.50;99.90
37974;DHT22;23796;51.458;7.000;2022-12-29T06:47:25;11.50;99.90
37974;DHT22;23796;51.458;7.000;2022-12-29T06:49:51;11.60;99.90
37974;DHT22;23796;51.458;7.000;2022-12-29T06:52:19;11.70;99.90
37974;DHT22;23796;51.458;7.000;2022-12-29T06:54:47;11.70;99.90
37974;DHT22;23796;51.458;7.000;2022-12-29T06:57:12;11.70;99.90
37974;DHT22;23796;51.458;7.000;2022-12-29T06:59:38;11.70;99.90
37974;DHT22;23796;51.458;7.000;2022-12-29T07:02:03;11.80;99.90
37974;DHT22;23796;51.458;7.000;2022-12-29T07:04:31;11.80;99.90
37974;DHT22;23796;51.458;7.000;2022-12-29T07:06:59;11.80;99.90
37974;DHT22;23796;51.458;7.000;2022-12-29T07:09:25;11.80;99.90
37974;DHT22;23796;51.458;7.000;2022-12-29T07:11:53;11.80;99.90
37974;DHT22;23796;51.458;7.000;2022-12-29T07:14:21;11.80;99.90
37974;DHT22;23796;51.458;7.000;2022-12-29T07:16:49;11.80;99.90
37974;DHT22;23796;51.458;7.000;2022-12-29T07:19:15;11.80;99.90
37974;DHT22;23796;51.458;7.000;2022-12-29T07:21:40;11.80;99.90
37974;DHT22;23796;51.458;7.000;2022-12-29T07:24:09;11.80;99.90
37974;DHT22;23796;51.458;7.000;2022-12-29T07:26:35;11.90;99.90
37974;DHT22;23796;51.458;7.000;2022-12-29T07:29:02;11.80;99.90
37974;DHT22;23796;51.458;7.000;2022-12-29T07:31:28;11.80;99.90
37974;DHT22;23796;51.458;7.000;2022-12-29T07:33:54;11.80;99.90
37974;DHT22;23796;51.458;7.000;2022-12-29T07:36:26;11.80;99.90
37974;DHT22;23796;51.458;7.000;2022-12-29T07:38:54;11.80;99.90
37974;DHT22;23796;51.458;7.000;2022-12-29T07:41:26;11.80;99.90
37974;DHT22;23796;51.458;7.000;2022-12-29T07:43:52;11.80;99.90
37974;DHT22;23796;51.458;7.000;2022-12-29T07:46:20;11.80;99.90
37974;DHT22;23796;51.458;7.000;2022-12-29T07:48:46;11.80;99.90
37974;DHT22;23796;51.458;7.000;2022-12-29T07:51:14;11.70;99.90
37974;DHT22;23796;51.458;7.000;2022-12-29T07:53:43;11.70;99.90
37974;DHT22;23796;51.458;7.000;2022-12-29T07:56:13;11.70;99.90
37974;DHT22;23796;51.458;7.000;2022-12-29T07:58:41;11.70;99.90
37974;DHT22;23796;51.458;7.000;2022-12-29T08:01:09;11.80;99.90
37974;DHT22;23796;51.458;7.000;2022-12-29T08:03:34;11.80;99.90
37974;DHT22;23796;51.458;7.000;2022-12-29T08:06:04;11.70;99.90
37974;DHT22;23796;51.458;7.000;2022-12-29T08:08:29;11.70;99.90
37974;DHT22;23796;51.458;7.000;2022-12-29T08:10:57;11.70;99.90
37974;DHT22;23796;51.458;7.000;2022-12-29T08:13:23;11.70;99.90
37974;DHT22;23796;51.458;7.000;2022-12-29T08:15:50;11.70;99.90
37974;DHT22;23796;51.458;7.000;2022-12-29T08:18:16;11.70;99.90
37974;DHT22;23796;51.458;7.000;2022-12-29T08:20:42;11.70;99.90
37974;DHT22;23796;51.458;7.000;2022-12-29T08:23:07;11.70;99.90
37974;DHT22;23796;51.458;7.000;2022-12-29T08:25:35;11.80;99.90
37974;DHT22;23796;51.458;7.000;2022-12-29T08:28:01;11.80;99.90
37974;DHT22;23796;51.458;7.000;2022-12-29T08:30:26;11.80;99.90
37974;DHT22;23796;51.458;7.000;2022-12-29T08:32:54;11.80;99.90
37974;DHT22;23796;51.458;7.000;2022-12-29T08:35:20;11.70;99.90
37974;DHT22;23796;51.458;7.000;2022-12-29T08:37:45;11.80;99.90
37974;DHT22;23796;51.458;7.000;2022-12-29T08:40:13;11.80;99.90
37974;DHT22;23796;51.458;7.000;2022-12-29T08:42:39;11.80;99.90
37974;DHT22;23796;51.458;7.000;2022-12-29T08:45:08;11.80;99.90
37974;DHT22;23796;51.458;7.000;2022-12-29T08:47:34;11.90;99.90
37974;DHT22;23796;51.458;7.000;2022-12-29T08:49:59;11.90;99.90
37974;DHT22;23796;51.458;7.000;2022-12-29T08:52:25;11.90;99.90
37974;DHT22;23796;51.458;7.000;2022-12-29T08:54:50;11.90;99.90
37974;DHT22;23796;51.458;7.000;2022-12-29T08:57:16;11.70;99.90
37974;DHT22;23796;51.458;7.000;2022-12-29T08:59:42;11.70;99.90
37974;DHT22;23796;51.458;7.000;2022-12-29T09:02:12;11.70;99.90
37974;DHT22;23796;51.458;7.000;2022-12-29T09:04:40;11.50;99.90
37974;DHT22;23796;51.458;7.000;2022-12-29T09:07:06;11.30;99.90
37974;DHT22;23796;51.458;7.000;2022-12-29T09:09:32;11.20;99.90
37974;DHT22;23796;51.458;7.000;2022-12-29T09:11:58;11.10;99.90
37974;DHT22;23796;51.458;7.000;2022-12-29T09:14:24;11.10;99.90
37974;DHT22;23796;51.458;7.000;2022-12-29T09:16:51;11.00;99.90
37974;DHT22;23796;51.458;7.000;2022-12-29T09:19:35;11.10;99.90
37974;DHT22;23796;51.458;7.000;2022-12-29T09:22:01;11.10;99.90
37974;DHT22;23796;51.458;7.000;2022-12-29T09:24:26;11.10;99.90
37974;DHT22;23796;51.458;7.000;2022-12-29T09:26:52;11.20;99.90
37974;DHT22;23796;51.458;7.000;2022-12-29T09:29:17;11.30;99.90
37974;DHT22;23796;51.458;7.000;2022-12-29T09:31:45;11.50;99.90
37974;DHT22;23796;51.458;7.000;2022-12-29T09:34:13;11.50;99.90
37974;DHT22;23796;51.458;7.000;2022-12-29T09:36:41;11.60;99.90
37974;DHT22;23796;51.458;7.000;2022-12-29T09:39:07;11.60;99.90
37974;DHT22;23796;51.458;7.000;2022-12-29T09:41:47;11.60;99.90
37974;DHT22;23796;51.458;7.000;2022-12-29T09:44:28;11.60;99.90
37974;DHT22;23796;51.458;7.000;2022-12-29T09:46:57;11.70;99.90
37974;DHT22;23796;51.458;7.000;2022-12-29T09:52:03;11.70;99.90
37974;DHT22;23796;51.458;7.000;2022-12-29T09:56:58;11.80;99.90
37974;DHT22;23796;51.458;7.000;2022-12-29T09:59:38;11.80;99.90
37974;DHT22;23796;51.458;7.000;2022-12-29T10:05:00;11.80;99.90
37974;DHT22;23796;51.458;7.000;2022-12-29T10:07:38;11.80;99.90
37974;DHT22;23796;51.458;7.000;2022-12-29T10:15:52;11.80;99.90
37974;DHT22;23796;51.458;7.000;2022-12-29T10:21:12;11.80;99.90
37974;DHT22;23796;51.458;7.000;2022-12-29T10:23:53;11.80;99.90
37974;DHT22;23796;51.458;7.000;2022-12-29T10:26:26;11.90;99.90
37974;DHT22;23796;51.458;7.000;2022-12-29T10:29:05;11.90;99.90
37974;DHT22;23796;51.458;7.000;2022-12-29T10:34:01;11.80;99.90
37974;DHT22;23796;51.458;7.000;2022-12-29T10:36:35;11.90;99.90
37974;DHT22;23796;51.458;7.000;2022-12-29T10:39:23;11.90;99.90
37974;DHT22;23796;51.458;7.000;2022-12-29T10:42:14;11.80;99.90
37974;DHT22;23796;51.458;7.000;2022-12-29T10:44:41;11.80;99.90
37974;DHT22;23796;51.458;7.000;2022-12-29T10:47:14;11.80;99.90
37974;DHT22;23796;51.458;7.000;2022-12-29T10:49:45;11.80;99.90
37974;DHT22;23796;51.458;7.000;2022-12-29T10:52:16;11.80;99.90
37974;DHT22;23796;51.458;7.000;2022-12-29T10:57:27;11.90;99.90
37974;DHT22;23796;51.458;7.000;2022-12-29T10:59:57;11.90;99.90
37974;DHT22;23796;51.458;7.000;2022-12-29T11:02:38;11.90;99.90
37974;DHT22;23796;51.458;7.000;2022-12-29T11:05:33;11.90;99.90
37974;DHT22;23796;51.458;7.000;2022-12-29T11:08:24;12.00;99.90
37974;DHT22;23796;51.458;7.000;2022-12-29T11:11:09;11.90;99.90
37974;DHT22;23796;51.458;7.000;2022-12-29T11:13:47;12.00;99.90
37974;DHT22;23796;51.458;7.000;2022-12-29T11:16:13;12.00;99.90
37974;DHT22;23796;51.458;7.000;2022-12-29T11:18:40;12.00;99.90
37974;DHT22;23796;51.458;7.000;2022-12-29T11:21:38;12.00;99.90
37974;DHT22;23796;51.458;7.000;2022-12-29T11:24:27;12.00;99.90
37974;DHT22;23796;51.458;7.000;2022-12-29T11:26:55;12.00;99.90
37974;DHT22;23796;51.458;7.000;2022-12-29T11:29:40;12.00;99.90
37974;DHT22;23796;51.458;7.000;2022-12-29T11:34:36;12.00;99.90
37974;DHT22;23796;51.458;7.000;2022-12-29T11:42:28;12.00;99.90
37974;DHT22;23796;51.458;7.000;2022-12-29T11:44:56;12.10;99.90
37974;DHT22;23796;51.458;7.000;2022-12-29T11:47:31;12.10;99.90
37974;DHT22;23796;51.458;7.000;2022-12-29T11:50:00;12.10;99.90
37974;DHT22;23796;51.458;7.000;2022-12-29T11:52:29;12.20;99.90
37974;DHT22;23796;51.458;7.000;2022-12-29T11:54:59;12.20;99.90
37974;DHT22;23796;51.458;7.000;2022-12-29T11:57:29;12.10;99.90
37974;DHT22;23796;51.458;7.000;2022-12-29T11:59:57;12.20;99.90
37974;DHT22;23796;51.458;7.000;2022-12-29T12:02:39;12.30;99.90
37974;DHT22;23796;51.458;7.000;2022-12-29T12:05:30;12.30;99.90
37974;DHT22;23796;51.458;7.000;2022-12-29T12:10:59;12.40;99.90
37974;DHT22;23796;51.458;7.000;2022-12-29T12:13:43;12.30;99.90
37974;DHT22;23796;51.458;7.000;2022-12-29T12:16:19;12.30;99.90
37974;DHT22;23796;51.458;7.000;2022-12-29T12:18:52;12.30;99.90
37974;DHT22;23796;51.458;7.000;2022-12-29T12:21:46;12.30;99.90
37974;DHT22;23796;51.458;7.000;2022-12-29T12:29:18;12.20;99.90
37974;DHT22;23796;51.458;7.000;2022-12-29T12:31:57;12.10;99.90
37974;DHT22;23796;51.458;7.000;2022-12-29T12:34:41;12.10;99.90
37974;DHT22;23796;51.458;7.000;2022-12-29T12:37:15;12.20;99.90
37974;DHT22;23796;51.458;7.000;2022-12-29T12:59:52;12.00;99.90
37974;DHT22;23796;51.458;7.000;2022-12-29T13:05:38;12.00;99.90
37974;DHT22;23796;51.458;7.000;2022-12-29T13:08:31;12.00;99.90
37974;DHT22;23796;51.458;7.000;2022-12-29T13:19:25;12.10;99.90
37974;DHT22;23796;51.458;7.000;2022-12-29T13:28:04;12.00;99.90
37974;DHT22;23796;51.458;7.000;2022-12-29T13:36:04;12.00;99.90
37974;DHT22;23796;51.458;7.000;2022-12-29T13:38:40;12.00;99.90
37974;DHT22;23796;51.458;7.000;2022-12-29T13:41:10;12.10;99.90
37974;DHT22;23796;51.458;7.000;2022-12-29T13:43:45;12.00;99.90
37974;DHT22;23796;51.458;7.000;2022-12-29T13:46:23;12.00;99.90
37974;DHT22;23796;51.458;7.000;2022-12-29T13:49:17;11.90;99.90
37974;DHT22;23796;51.458;7.000;2022-12-29T13:52:23;11.90;99.90
37974;DHT22;23796;51.458;7.000;2022-12-29T13:57:43;11.80;99.90
37974;DHT22;23796;51.458;7.000;2022-12-29T14:00:16;11.80;99.90
37974;DHT22;23796;51.458;7.000;2022-12-29T14:02:50;11.80;99.90
37974;DHT22;23796;51.458;7.000;2022-12-29T14:05:30;11.80;99.90
37974;DHT22;23796;51.458;7.000;2022-12-29T14:08:19;11.80;99.90
37974;DHT22;23796;51.458;7.000;2022-12-29T14:10:51;11.80;99.90
37974;DHT22;23796;51.458;7.000;2022-12-29T14:13:20;11.80;99.90
37974;DHT22;23796;51.458;7.000;2022-12-29T14:15:54;11.80;99.90
37974;DHT22;23796;51.458;7.000;2022-12-29T14:18:33;11.70;99.90
37974;DHT22;23796;51.458;7.000;2022-12-29T14:21:21;11.70;99.90
37974;DHT22;23796;51.458;7.000;2022-12-29T14:23:54;11.80;99.90
37974;DHT22;23796;51.458;7.000;2022-12-29T14:31:46;11.70;99.90
37974;DHT22;23796;51.458;7.000;2022-12-29T14:39:38;11.60;99.90
37974;DHT22;23796;51.458;7.000;2022-12-29T14:47:31;11.60;99.90
37974;DHT22;23796;51.458;7.000;2022-12-29T14:50:12;11.60;99.90
37974;DHT22;23796;51.458;7.000;2022-12-29T14:55:45;11.60;99.90
37974;DHT22;23796;51.458;7.000;2022-12-29T14:58:26;11.60;99.90
37974;DHT22;23796;51.458;7.000;2022-12-29T15:00:53;11.60;99.90
37974;DHT22;23796;51.458;7.000;2022-12-29T15:08:33;11.50;99.90
37974;DHT22;23796;51.458;7.000;2022-12-29T15:11:04;11.50;99.90
37974;DHT22;23796;51.458;7.000;2022-12-29T15:13:40;11.50;99.90
37974;DHT22;23796;51.458;7.000;2022-12-29T15:16:31;11.40;99.90
37974;DHT22;23796;51.458;7.000;2022-12-29T15:19:02;11.40;99.90
37974;DHT22;23796;51.458;7.000;2022-12-29T15:21:34;11.50;99.90
37974;DHT22;23796;51.458;7.000;2022-12-29T15:24:04;11.40;99.90
37974;DHT22;23796;51.458;7.000;2022-12-29T15:26:40;11.50;99.90
37974;DHT22;23796;51.458;7.000;2022-12-29T15:29:29;11.40;99.90
37974;DHT22;23796;51.458;7.000;2022-12-29T15:32:00;11.40;99.90
37974;DHT22;23796;51.458;7.000;2022-12-29T15:34:30;11.40;99.90
37974;DHT22;23796;51.458;7.000;2022-12-29T15:36:58;11.40;99.90
37974;DHT22;23796;51.458;7.000;2022-12-29T15:39:30;11.40;99.90
37974;DHT22;23796;51.458;7.000;2022-12-29T15:42:02;11.30;99.90
37974;DHT22;23796;51.458;7.000;2022-12-29T15:46:57;11.30;99.90
37974;DHT22;23796;51.458;7.000;2022-12-29T15:49:23;11.30;99.90
37974;DHT22;23796;51.458;7.000;2022-12-29T15:51:51;11.30;99.90
37974;DHT22;23796;51.458;7.000;2022-12-29T15:54:19;11.20;99.90
37974;DHT22;23796;51.458;7.000;2022-12-29T15:56:46;11.20;99.90
37974;DHT22;23796;51.458;7.000;2022-12-29T15:59:32;11.10;99.90
37974;DHT22;23796;51.458;7.000;2022-12-29T16:01:59;11.20;99.90
37974;DHT22;23796;51.458;7.000;2022-12-29T16:04:32;11.10;99.90
37974;DHT22;23796;51.458;7.000;2022-12-29T16:07:01;11.10;99.90
37974;DHT22;23796;51.458;7.000;2022-12-29T16:09:57;11.10;99.90
37974;DHT22;23796;51.458;7.000;2022-12-29T16:12:35;11.10;99.90
37974;DHT22;23796;51.458;7.000;2022-12-29T16:15:03;10.90;99.90
37974;DHT22;23796;51.458;7.000;2022-12-29T16:17:31;10.80;99.90
37974;DHT22;23796;51.458;7.000;2022-12-29T16:20:39;10.70;99.90
37974;DHT22;23796;51.458;7.000;2022-12-29T16:23:21;10.60;99.90
37974;DHT22;23796;51.458;7.000;2022-12-29T16:25:47;10.40;99.90
37974;DHT22;23796;51.458;7.000;2022-12-29T16:28:41;10.30;99.90
37974;DHT22;23796;51.458;7.000;2022-12-29T16:31:36;10.30;99.90
37974;DHT22;23796;51.458;7.000;2022-12-29T16:34:24;10.20;99.90
37974;DHT22;23796;51.458;7.000;2022-12-29T16:36:57;10.20;99.90
37974;DHT22;23796;51.458;7.000;2022-12-29T16:39:37;10.20;99.90
37974;DHT22;23796;51.458;7.000;2022-12-29T16:42:45;10.20;99.90
37974;DHT22;23796;51.458;7.000;2022-12-29T16:50:36;10.40;99.90
37974;DHT22;23796;51.458;7.000;2022-12-29T16:53:03;10.40;99.90
37974;DHT22;23796;51.458;7.000;2022-12-29T16:55:29;10.40;99.90
37974;DHT22;23796;51.458;7.000;2022-12-29T16:57:55;10.40;99.90
37974;DHT22;23796;51.458;7.000;2022-12-29T17:00:26;10.40;99.90
37974;DHT22;23796;51.458;7.000;2022-12-29T17:02:58;10.40;99.90
37974;DHT22;23796;51.458;7.000;2022-12-29T17:05:24;10.40;99.90
37974;DHT22;23796;51.458;7.000;2022-12-29T17:07:56;10.40;99.90
37974;DHT22;23796;51.458;7.000;2022-12-29T17:10:26;10.40;99.90
37974;DHT22;23796;51.458;7.000;2022-12-29T17:13:12;10.50;99.90
37974;DHT22;23796;51.458;7.000;2022-12-29T17:15:37;10.60;99.90
37974;DHT22;23796;51.458;7.000;2022-12-29T17:18:03;10.30;99.90
37974;DHT22;23796;51.458;7.000;2022-12-29T17:20:32;9.60;99.90
37974;DHT22;23796;51.458;7.000;2022-12-29T17:23:15;9.40;99.90
37974;DHT22;23796;51.458;7.000;2022-12-29T17:25:43;9.10;99.90
37974;DHT22;23796;51.458;7.000;2022-12-29T17:28:32;9.00;99.90
37974;DHT22;23796;51.458;7.000;2022-12-29T17:31:02;8.90;99.90
37974;DHT22;23796;51.458;7.000;2022-12-29T17:33:31;8.80;99.90
37974;DHT22;23796;51.458;7.000;2022-12-29T17:36:02;8.70;99.90
37974;DHT22;23796;51.458;7.000;2022-12-29T17:38:33;8.50;99.90
37974;DHT22;23796;51.458;7.000;2022-12-29T17:40:59;8.40;99.90
37974;DHT22;23796;51.458;7.000;2022-12-29T17:43:27;8.50;99.90
37974;DHT22;23796;51.458;7.000;2022-12-29T17:45:56;8.60;99.90
37974;DHT22;23796;51.458;7.000;2022-12-29T17:48:23;8.70;99.90
37974;DHT22;23796;51.458;7.000;2022-12-29T17:50:52;8.70;99.90
37974;DHT22;23796;51.458;7.000;2022-12-29T17:53:24;8.70;99.90
37974;DHT22;23796;51.458;7.000;2022-12-29T17:55:50;8.80;99.90
37974;DHT22;23796;51.458;7.000;2022-12-29T17:58:23;8.80;99.90
37974;DHT22;23796;51.458;7.000;2022-12-29T18:00:52;8.80;99.90
37974;DHT22;23796;51.458;7.000;2022-12-29T18:03:23;8.90;99.90
37974;DHT22;23796;51.458;7.000;2022-12-29T18:05:52;9.00;99.90
37974;DHT22;23796;51.458;7.000;2022-12-29T18:08:20;9.00;99.90
37974;DHT22;23796;51.458;7.000;2022-12-29T18:10:52;8.90;99.90
37974;DHT22;23796;51.458;7.000;2022-12-29T18:13:21;8.90;99.90
37974;DHT22;23796;51.458;7.000;2022-12-29T18:15:48;8.80;99.90
37974;DHT22;23796;51.458;7.000;2022-12-29T18:18:16;8.70;99.90
37974;DHT22;23796;51.458;7.000;2022-12-29T18:20:44;8.60;99.90
37974;DHT22;23796;51.458;7.000;2022-12-29T18:28:18;8.40;99.90